Fremont, MI

9:41 PM EDT on July 25, 2017 (GMT -0400)
Fremont

Weather History for KFFX - July, 2012

Change the Weather History Date:

Saturday, July 21, 2012

  Actual Average (KMKG) Record (KMKG)
Temperature  
Mean Temperature 70 °F -  
Max Temperature 81 °F 80 °F 95 °F (1934)
Min Temperature 58 °F 60 °F 43 °F (1921)
Cooling Degree Days 4    
Growing Degree Days 20 (Base 50)    
Moisture  
Dew Point 63 °F    
Average Humidity 79    
Maximum Humidity 100    
Minimum Humidity 50    
Precipitation  
Precipitation 0.00 in - - ()
Sea Level Pressure  
Sea Level Pressure 30.06 in    
Wind  
Wind Speed 3 mph (SSW)    
Max Wind Speed 13 mph    
Max Gust Speed 18 mph    
Visibility 10 miles    
Events      
Averages and records for this station are not official NWS values.
T = Trace of Precipitation, MM = Missing Value Source: NWS Daily Summary

Daily Weather History Graph

Daily Weather History Graph

Search for Another Location

Airport or City:

Trip Planner

Search our weather history database for the weather conditions in past years. The results will help you decide how hot, cold, wet, or windy it might be!

Date:

Astronomy

Jul. 21, 2012 Rise Set
Actual Time 6:22 AM EDT 9:17 PM EDT
Civil Twilight 5:49 AM EDT 9:50 PM EDT
Nautical Twilight 5:06 AM EDT 10:33 PM EDT
Astronomical Twilight 4:15 AM EDT 11:23 PM EDT
Moon 9:09 AM EDT (7/21) 10:21 PM EDT (7/21)
Length of Visible Light 16h 01m
Length of Day
14h 54m
Waxing Crescent, 7% of the Moon is Illuminated
Jul 21
Waxing Crescent
Jul 26
First Quarter
Aug 1
Full
Aug 9
Last Quarter
Aug 17
New

Hourly Weather History & Observations

Time (EDT) Temp. Heat Index Dew Point Humidity Pressure Visibility Wind Dir Wind Speed Gust Speed Precip Events Conditions
12:15 AM 62.2 °F - 59.7 °F 91% 30.08 in 10.0 mi Calm Calm - N/A   Clear
12:35 AM 62.6 °F - 60.8 °F 94% 30.08 in 10.0 mi Calm Calm - N/A   Clear
1:16 AM 60.8 °F - 60.3 °F 98% 30.08 in 10.0 mi East 4.6 mph - N/A   Clear
1:55 AM 62.8 °F - 59.5 °F 89% 30.08 in 10.0 mi Calm Calm - N/A   Clear
2:16 AM 60.8 °F - 59.9 °F 97% 30.09 in 10.0 mi Calm Calm - N/A   Clear
2:36 AM 60.6 °F - 59.9 °F 97% 30.08 in 10.0 mi Calm Calm - N/A   Clear
2:56 AM 60.4 °F - 59.5 °F 97% 30.08 in 10.0 mi Calm Calm - N/A   Clear
3:15 AM 59.9 °F - 59.4 °F 98% 30.07 in 10.0 mi Calm Calm - N/A   Clear
3:36 AM 59.4 °F - 59.2 °F 99% 30.07 in 10.0 mi Calm Calm - N/A   Clear
3:56 AM 58.8 °F - 58.5 °F 99% 30.09 in 10.0 mi NW 4.6 mph - N/A   Clear
4:16 AM 59.2 °F - 59.2 °F 100% 30.07 in 10.0 mi Calm Calm - N/A   Clear
4:56 AM 58.5 °F - 58.3 °F 99% 30.05 in 10.0 mi Calm Calm - N/A   Clear
5:16 AM 59.0 °F - 59.0 °F 100% 30.05 in 10.0 mi Calm Calm - N/A   Clear
5:36 AM 58.8 °F - 58.8 °F 100% 30.05 in 7.0 mi Calm Calm - N/A   Clear
5:55 AM 58.8 °F - 58.8 °F 100% 30.06 in 10.0 mi Calm Calm - N/A   Clear
6:16 AM 59.0 °F - 59.0 °F 100% 30.06 in 10.0 mi Calm Calm - N/A   Clear
6:36 AM 58.5 °F - 58.5 °F 100% 30.07 in 7.0 mi Calm Calm - N/A   Clear
6:56 AM 58.3 °F - 58.3 °F 100% 30.06 in 7.0 mi Calm Calm - N/A   Clear
7:16 AM 61.0 °F - 59.2 °F 94% 30.07 in 10.0 mi SE 3.5 mph - N/A   Clear
7:35 AM 61.7 °F - 58.6 °F 90% 30.08 in 10.0 mi Calm Calm - N/A   Clear
7:56 AM 61.9 °F - 59.9 °F 93% 30.08 in 10.0 mi Calm Calm - N/A   Clear
8:16 AM 62.4 °F - 59.9 °F 91% 30.08 in 10.0 mi Calm Calm - N/A   Clear
8:36 AM 63.5 °F - 60.4 °F 90% 30.09 in 10.0 mi South 3.5 mph - N/A   Clear
8:56 AM 64.4 °F - 61.2 °F 89% 30.09 in 10.0 mi South 4.6 mph - N/A   Clear
9:15 AM 65.5 °F - 62.6 °F 90% 30.09 in 10.0 mi South 4.6 mph - N/A   Clear
9:36 AM 68.4 °F - 64.6 °F 88% 30.08 in 10.0 mi South 4.6 mph - N/A   Clear
9:56 AM 71.2 °F - 65.1 °F 81% 30.07 in 10.0 mi SSW 6.9 mph - N/A   Clear
10:16 AM 72.9 °F - 64.6 °F 75% 30.08 in 10.0 mi SSW 10.4 mph - N/A   Clear
10:36 AM 74.3 °F - 65.1 °F 73% 30.08 in 10.0 mi SW 6.9 mph 18.4 mph N/A   Clear
10:55 AM 76.1 °F - 66.0 °F 71% 30.09 in 10.0 mi SW 8.1 mph - N/A   Clear
11:16 AM 77.2 °F - 66.2 °F 69% 30.09 in 10.0 mi WSW 9.2 mph - N/A   Clear
11:36 AM 78.3 °F - 65.1 °F 64% 30.08 in 10.0 mi WSW 8.1 mph - N/A   Clear
11:56 AM 79.5 °F - 64.0 °F 59% 30.08 in 10.0 mi SW 8.1 mph 16.1 mph N/A   Clear
12:16 PM 79.9 °F - 63.7 °F 58% 30.09 in 10.0 mi SW 10.4 mph 16.1 mph N/A   Clear
12:36 PM 80.8 °F 82.1 °F 63.1 °F 55% 30.08 in 10.0 mi SW 10.4 mph 17.3 mph N/A   Clear
12:56 PM 81.0 °F 82.2 °F 63.0 °F 54% 30.07 in 10.0 mi SW 11.5 mph - N/A   Scattered Clouds
1:16 PM 81.5 °F 82.7 °F 62.6 °F 53% 30.07 in 10.0 mi SSW 10.4 mph 18.4 mph N/A   Scattered Clouds
1:36 PM 81.5 °F 82.2 °F 61.0 °F 50% 30.06 in 10.0 mi SW 8.1 mph 17.3 mph N/A   Clear
1:56 PM 80.8 °F 81.8 °F 61.7 °F 52% 30.06 in 10.0 mi SW 10.4 mph - N/A   Clear
2:15 PM 81.0 °F 82.2 °F 63.1 °F 54% 30.05 in 10.0 mi SSW 6.9 mph - N/A   Clear
2:36 PM 81.1 °F 82.8 °F 64.4 °F 57% 30.05 in 10.0 mi SSW 10.4 mph - N/A   Scattered Clouds
2:55 PM 79.7 °F - 64.2 °F 59% 30.05 in 10.0 mi SSW 12.7 mph - N/A   Clear
3:16 PM 79.0 °F - 63.9 °F 60% 30.05 in 10.0 mi SW 8.1 mph - N/A   Clear
3:36 PM 79.0 °F - 63.5 °F 59% 30.05 in 10.0 mi SSW 12.7 mph 16.1 mph N/A   Clear
3:55 PM 78.8 °F - 64.4 °F 61% 30.05 in 10.0 mi SSW 8.1 mph - N/A   Clear
4:16 PM 78.1 °F - 64.0 °F 62% 30.05 in 10.0 mi SW 9.2 mph - N/A   Mostly Cloudy
4:36 PM 77.5 °F - 64.8 °F 65% 30.04 in 10.0 mi SSW 9.2 mph - N/A   Scattered Clouds
4:56 PM 76.6 °F - 65.3 °F 68% 30.03 in 10.0 mi SSW 10.4 mph - N/A   Scattered Clouds
5:16 PM 76.1 °F - 65.3 °F 69% 30.03 in 10.0 mi SW 9.2 mph - N/A   Clear
5:35 PM 76.1 °F - 65.8 °F 70% 30.03 in 10.0 mi SSW 8.1 mph - N/A   Clear
6:16 PM 77.9 °F - 66.4 °F 68% 30.01 in 10.0 mi SSW 8.1 mph - N/A   Clear
6:35 PM 77.0 °F - 66.4 °F 70% 30.01 in 10.0 mi SSW 5.8 mph - N/A   Clear
6:56 PM 77.7 °F - 66.4 °F 68% 30.01 in 10.0 mi SW 8.1 mph - N/A   Clear
7:16 PM 78.8 °F - 66.0 °F 65% 30.01 in 10.0 mi SSW 9.2 mph - N/A   Clear
7:36 PM 78.1 °F - 66.7 °F 68% 30.01 in 10.0 mi WSW 8.1 mph - N/A   Clear
7:56 PM 77.7 °F - 66.9 °F 69% 30.01 in 10.0 mi SW 8.1 mph - N/A   Clear
8:16 PM 77.2 °F - 67.1 °F 71% 30.02 in 10.0 mi SSW 4.6 mph - N/A   Clear
8:36 PM 76.1 °F - 67.3 °F 74% 30.02 in 10.0 mi SW 8.1 mph - N/A   Clear
8:56 PM 75.0 °F - 67.6 °F 78% 30.02 in 10.0 mi SSW 5.8 mph - N/A   Clear
9:15 PM 73.9 °F - 66.7 °F 78% 30.03 in 10.0 mi SSW 5.8 mph - N/A   Clear
9:36 PM 72.5 °F - 66.7 °F 82% 30.02 in 10.0 mi Calm Calm - N/A   Clear
9:55 PM 71.6 °F - 66.6 °F 84% 30.03 in 10.0 mi South 3.5 mph - N/A   Clear
10:16 PM 70.3 °F - 66.7 °F 88% 30.03 in 10.0 mi SSE 3.5 mph - N/A   Clear
10:35 PM 69.6 °F - 66.4 °F 89% 30.03 in 10.0 mi Calm Calm - N/A   Clear
10:56 PM 69.3 °F - 66.9 °F 92% 30.03 in 10.0 mi Calm Calm - N/A   Clear
11:16 PM 68.5 °F - 66.7 °F 94% 30.02 in 10.0 mi Calm Calm - N/A   Clear
11:36 PM 68.7 °F - 66.4 °F 92% 30.02 in 10.0 mi South 3.5 mph - N/A   Clear
11:55 PM 68.0 °F - 66.2 °F 94% 30.02 in 7.0 mi South 3.5 mph - N/A   Clear